Time;durP1;ratioP1;P1;durP2;ratioP2;P2;SDS_P1;SDS_P2;PMS_P1;PMS_P2;Temp;Humidity;BMP_temperature;BMP_pressure;BME280_temperature;BME280_humidity;BME280_pressure;Samples;Min_cycle;Max_cycle;Signal;HPM_P1;HPM_P2
2021/04/12 00:00:31;;;;;;;10.27;5.10;;;13.50;53.60;;;;;;4943186;29;20055;-65
2021/04/12 00:03:25;;;;;;;8.90;5.30;;;13.50;53.70;;;;;;4950072;29;20051;-65
2021/04/12 00:05:56;;;;;;;10.00;4.90;;;13.30;54.00;;;;;;4950349;29;20050;-65
2021/04/12 00:08:47;;;;;;;8.02;4.63;;;13.40;54.30;;;;;;4950197;29;20059;-65
2021/04/12 00:11:32;;;;;;;9.93;5.10;;;13.30;54.40;;;;;;4965051;28;20091;-65
2021/04/12 00:14:11;;;;;;;11.50;4.50;;;13.30;54.30;;;;;;4949767;28;20061;-65
2021/04/12 00:17:15;;;;;;;9.73;4.40;;;13.40;54.70;;;;;;4953696;28;20114;-65
2021/04/12 00:19:54;;;;;;;5.32;4.38;;;13.40;55.00;;;;;;4929883;29;20138;-65
2021/04/12 00:22:33;;;;;;;8.80;4.53;;;13.50;55.00;;;;;;4965064;28;20051;-64
2021/04/12 00:25:25;;;;;;;7.55;4.43;;;13.50;55.00;;;;;;4950175;29;20130;-65
2021/04/12 00:28:30;;;;;;;5.75;4.20;;;13.60;55.10;;;;;;4925342;29;20063;-65
2021/04/12 00:31:21;;;;;;;9.50;4.50;;;13.50;55.30;;;;;;4929305;29;20091;-65
2021/04/12 00:33:53;;;;;;;10.68;5.00;;;13.40;55.90;;;;;;4949438;29;20408;-66
2021/04/12 00:36:38;;;;;;;9.70;6.07;;;13.20;56.40;;;;;;4950197;28;20059;-65
2021/04/12 00:39:23;;;;;;;13.43;5.53;;;13.20;57.00;;;;;;4949714;29;20039;-65
2021/04/12 00:41:58;;;;;;;12.20;5.70;;;13.10;57.50;;;;;;4949375;29;20565;-66
2021/04/12 00:45:08;;;;;;;13.95;5.85;;;12.90;58.00;;;;;;4949903;29;20055;-65
2021/04/12 00:47:49;;;;;;;14.93;7.05;;;12.80;58.50;;;;;;4949665;28;20097;-65
2021/04/12 00:50:48;;;;;;;10.85;6.72;;;12.70;58.80;;;;;;4964681;28;20054;-65
2021/04/12 00:53:22;;;;;;;11.65;6.55;;;12.40;59.20;;;;;;4950014;29;20134;-65
2021/04/12 00:55:55;;;;;;;13.75;6.70;;;12.40;58.90;;;;;;4964537;28;20514;-66
2021/04/12 00:58:31;;;;;;;13.30;8.02;;;12.30;59.10;;;;;;4964129;28;20055;-65
2021/04/12 01:04:10;;;;;;;11.40;6.95;;;12.30;59.70;;;;;;4927707;29;20546;-65
2021/04/12 01:07:02;;;;;;;12.60;7.68;;;12.20;60.20;;;;;;4959982;28;20703;-65
2021/04/12 01:09:52;;;;;;;13.65;7.80;;;12.10;60.70;;;;;;4948577;29;20131;-66
2021/04/12 01:12:42;;;;;;;14.93;7.53;;;12.00;61.10;;;;;;4931299;28;20154;-65
2021/04/12 01:15:31;;;;;;;14.55;8.38;;;11.90;61.80;;;;;;4930700;29;20052;-66
2021/04/12 01:18:21;;;;;;;15.73;7.80;;;11.90;62.60;;;;;;4929628;29;20130;-65
2021/04/12 01:20:47;;;;;;;14.35;6.70;;;11.80;63.60;;;;;;4930343;29;20058;-65
2021/04/12 01:23:38;;;;;;;13.95;7.68;;;11.80;63.10;;;;;;4930308;29;20481;-66
2021/04/12 01:26:16;;;;;;;16.05;7.35;;;11.80;63.50;;;;;;4930595;29;20107;-65
2021/04/12 01:28:45;;;;;;;14.82;6.80;;;11.80;63.60;;;;;;4930549;29;20191;-65
2021/04/12 01:31:46;;;;;;;11.95;7.47;;;11.70;63.50;;;;;;4932265;29;20492;-65
2021/04/12 01:34:43;;;;;;;11.20;7.15;;;11.70;63.50;;;;;;4933740;29;20135;-65
2021/04/12 01:37:27;;;;;;;10.82;7.00;;;11.80;63.30;;;;;;4933581;29;20099;-65
2021/04/12 01:40:18;;;;;;;14.60;7.07;;;11.90;62.90;;;;;;4933915;29;20222;-65
2021/04/12 01:43:06;;;;;;;16.67;6.57;;;12.00;62.50;;;;;;4932553;29;20044;-65
2021/04/12 01:45:49;;;;;;;13.65;6.38;;;12.10;62.30;;;;;;4933924;29;20623;-65
2021/04/12 01:48:37;;;;;;;8.90;6.03;;;12.10;62.30;;;;;;4932939;29;20114;-65
2021/04/12 01:51:27;;;;;;;12.15;6.25;;;12.10;63.00;;;;;;4948267;29;20151;-65
2021/04/12 01:54:12;;;;;;;15.65;6.20;;;12.10;62.80;;;;;;4933555;29;20063;-65
2021/04/12 01:57:00;;;;;;;12.25;6.43;;;12.00;62.60;;;;;;4948030;29;20135;-66
2021/04/12 02:00:06;;;;;;;12.20;5.75;;;12.10;63.00;;;;;;4933541;29;20048;-65
2021/04/12 02:02:53;;;;;;;13.13;5.65;;;12.10;62.80;;;;;;4932448;29;20567;-65
2021/04/12 02:05:30;;;;;;;13.07;6.25;;;12.10;62.90;;;;;;4934759;29;20055;-65
2021/04/12 02:08:18;;;;;;;10.98;6.00;;;12.20;62.20;;;;;;4952459;28;20095;-65
2021/04/12 02:11:05;;;;;;;12.27;5.80;;;12.20;62.40;;;;;;4944646;29;20052;-66
2021/04/12 02:13:37;;;;;;;11.30;6.20;;;12.20;62.60;;;;;;4921611;29;20477;-65
2021/04/12 02:16:45;;;;;;;10.83;6.80;;;12.30;62.60;;;;;;4933396;29;20102;-65
2021/04/12 02:19:39;;;;;;;13.13;5.55;;;12.30;62.80;;;;;;4913969;29;20127;-65
2021/04/12 02:22:11;;;;;;;8.35;5.07;;;12.30;62.90;;;;;;4933170;29;20498;-65
2021/04/12 02:25:24;;;;;;;13.17;5.70;;;12.20;63.10;;;;;;4933091;29;20476;-65
2021/04/12 02:28:22;;;;;;;7.03;5.13;;;12.20;63.40;;;;;;4892677;29;20328;-67
2021/04/12 02:31:07;;;;;;;8.30;5.18;;;12.20;63.50;;;;;;4933059;29;20113;-65
2021/04/12 02:33:41;;;;;;;8.43;4.38;;;12.20;63.70;;;;;;4932486;29;20154;-65
2021/04/12 02:36:45;;;;;;;5.65;4.68;;;12.10;63.70;;;;;;4931489;29;20142;-66
2021/04/12 02:39:28;;;;;;;;;;;12.10;64.00;;;;;;4947394;29;20048;-65
2021/04/12 02:42:12;;;;;;;;;;;12.20;63.90;;;;;;4932102;29;20407;-65
2021/04/12 02:45:11;;;;;;;9.23;5.10;;;12.20;63.80;;;;;;4932681;29;19990;-65
2021/04/12 02:47:59;;;;;;;6.63;4.53;;;12.20;63.50;;;;;;4932496;29;20138;-65
2021/04/12 02:51:10;;;;;;;10.45;5.60;;;12.20;63.80;;;;;;4932467;29;20051;-65
2021/04/12 02:54:03;;;;;;;12.02;5.60;;;12.10;64.00;;;;;;4932541;29;20138;-65
2021/04/12 02:56:35;;;;;;;8.52;4.90;;;12.10;64.50;;;;;;4946911;29;20067;-65
2021/04/12 02:59:10;;;;;;;8.05;4.78;;;12.00;64.50;;;;;;4920422;29;20139;-65
2021/04/12 03:02:00;;;;;;;8.35;5.20;;;12.00;64.60;;;;;;4932055;29;20051;-66
2021/04/12 03:04:30;;;;;;;6.05;4.80;;;12.00;64.70;;;;;;4946582;29;20146;-65
2021/04/12 03:07:23;;;;;;;9.15;5.25;;;11.90;64.80;;;;;;4941989;29;20053;-65
2021/04/12 03:10:14;;;;;;;9.07;5.32;;;11.80;65.40;;;;;;4950710;29;20082;-65
2021/04/12 03:13:05;;;;;;;10.55;4.95;;;11.70;65.70;;;;;;4932112;29;20051;-65
2021/04/12 03:15:50;;;;;;;10.35;5.43;;;11.60;66.00;;;;;;4932022;29;20126;-65
2021/04/12 03:18:43;;;;;;;8.02;4.93;;;11.60;66.30;;;;;;4931639;29;20048;-65
2021/04/12 03:21:12;;;;;;;;;;;11.50;66.40;;;;;;4932359;29;20142;-65
2021/04/12 03:23:59;;;;;;;11.45;5.15;;;11.50;66.70;;;;;;4932000;29;19927;-65
2021/04/12 03:26:44;;;;;;;10.95;5.32;;;11.40;67.50;;;;;;4930583;29;20142;-65
2021/04/12 03:29:30;;;;;;;7.55;5.20;;;11.30;66.80;;;;;;4931835;29;20047;-65
2021/04/12 03:32:10;;;;;;;9.95;5.78;;;11.30;66.60;;;;;;4923875;29;20126;-65
2021/04/12 03:34:48;;;;;;;11.00;5.32;;;11.20;66.10;;;;;;4931937;29;20856;-65
2021/04/12 03:37:25;;;;;;;9.95;5.88;;;11.30;66.20;;;;;;4931509;29;20138;-65
2021/04/12 03:40:13;;;;;;;8.48;5.38;;;11.40;65.90;;;;;;4930474;29;20055;-65
2021/04/12 03:43:02;;;;;;;11.18;5.60;;;11.30;66.10;;;;;;4931729;29;20143;-65
2021/04/12 03:46:01;;;;;;;11.93;6.53;;;11.20;66.50;;;;;;4926271;29;20504;-65
2021/04/12 03:49:08;;;;;;;13.50;6.40;;;11.20;66.60;;;;;;4931387;29;20105;-65
2021/04/12 03:51:37;;;;;;;11.02;6.93;;;11.10;66.50;;;;;;4915539;29;20067;-65
2021/04/12 03:54:30;;;;;;;11.55;5.78;;;11.00;66.60;;;;;;4931430;29;20083;-65
2021/04/12 03:57:18;;;;;;;16.05;6.72;;;11.00;66.50;;;;;;4931483;29;20052;-65
2021/04/12 04:00:15;;;;;;;12.43;7.30;;;11.00;67.40;;;;;;4931349;29;20472;-65
2021/04/12 04:03:24;;;;;;;16.40;6.68;;;10.90;66.40;;;;;;4930735;29;20122;-65
2021/04/12 04:06:19;;;;;;;14.13;6.82;;;10.90;66.10;;;;;;4932085;29;20134;-65
2021/04/12 04:08:54;;;;;;;10.20;7.25;;;10.90;66.20;;;;;;4949180;29;20055;-66
2021/04/12 04:11:26;;;;;;;10.13;6.90;;;10.90;66.00;;;;;;4937752;29;20138;-65
2021/04/12 04:14:25;;;;;;;13.07;7.35;;;11.00;65.70;;;;;;4945904;29;20459;-65
2021/04/12 04:17:13;;;;;;;12.35;6.90;;;11.00;65.20;;;;;;4922717;29;20848;-65
2021/04/12 04:19:46;;;;;;;13.07;6.88;;;11.00;65.80;;;;;;4931009;29;20075;-66
2021/04/12 04:22:46;;;;;;;13.45;7.35;;;10.90;65.20;;;;;;4930853;29;20143;-65
2021/04/12 04:25:21;;;;;;;17.63;7.18;;;10.90;65.30;;;;;;4929826;29;20138;-65
2021/04/12 04:28:07;;;;;;;15.68;7.63;;;10.90;65.00;;;;;;4929654;29;20134;-66
2021/04/12 04:31:00;;;;;;;12.82;7.82;;;10.90;65.20;;;;;;4930444;29;20146;-66
2021/04/12 04:33:46;;;;;;;11.63;7.47;;;10.90;65.50;;;;;;4925460;29;20079;-65
2021/04/12 04:36:36;;;;;;;15.40;7.30;;;10.90;65.10;;;;;;4930873;29;20072;-66
2021/04/12 04:39:33;;;;;;;15.98;7.18;;;10.90;64.90;;;;;;4930738;29;20126;-66
2021/04/12 04:42:23;;;;;;;12.23;7.78;;;11.00;64.80;;;;;;4930668;29;20115;-66
2021/04/12 04:45:31;;;;;;;13.00;6.82;;;11.10;64.40;;;;;;4930526;29;20192;-65
2021/04/12 04:47:59;;;;;;;14.52;7.65;;;11.00;64.20;;;;;;4931007;29;20422;-66
2021/04/12 04:50:53;;;;;;;13.32;8.30;;;11.00;64.30;;;;;;4929447;29;20090;-65
2021/04/12 04:53:33;;;;;;;15.70;7.88;;;11.00;64.10;;;;;;4928826;29;20078;-67
2021/04/12 04:56:17;;;;;;;14.13;8.13;;;11.10;64.00;;;;;;4930010;29;20809;-66
2021/04/12 04:59:07;;;;;;;13.18;8.40;;;11.10;64.00;;;;;;4930569;29;20055;-66
2021/04/12 05:01:58;;;;;;;13.80;8.05;;;11.10;63.90;;;;;;4930153;29;20139;-66
2021/04/12 05:04:39;;;;;;;15.63;7.45;;;11.10;64.00;;;;;;4930122;29;20063;-66
2021/04/12 05:07:39;;;;;;;16.77;8.00;;;11.10;64.40;;;;;;4943336;29;20166;-66
2021/04/12 05:10:43;;;;;;;15.70;8.35;;;11.20;63.90;;;;;;4950323;28;20110;-66
2021/04/12 05:13:53;;;;;;;19.15;8.40;;;11.20;63.70;;;;;;4950928;29;20559;-67
2021/04/12 05:16:52;;;;;;;20.75;8.75;;;11.30;63.70;;;;;;4893271;29;20052;-68
2021/04/12 05:19:18;;;;;;;19.25;9.70;;;11.40;63.50;;;;;;4895228;29;20135;-68
2021/04/12 05:21:56;;;;;;;17.05;8.55;;;11.50;63.60;;;;;;4940658;29;20158;-68
2021/04/12 05:24:51;;;;;;;15.93;8.43;;;11.50;63.50;;;;;;4952387;29;20126;-68
2021/04/12 05:27:26;;;;;;;22.73;9.13;;;11.70;62.90;;;;;;4935357;28;20063;-68
2021/04/12 05:30:14;;;;;;;15.60;8.55;;;11.70;62.80;;;;;;4936051;29;20065;-68
2021/04/12 05:32:57;;;;;;;14.23;7.80;;;11.80;62.50;;;;;;4953142;29;20051;-66
2021/04/12 05:35:48;;;;;;;15.88;7.78;;;11.80;62.00;;;;;;4952690;29;20126;-67
2021/04/12 05:38:52;;;;;;;15.32;8.38;;;11.80;62.60;;;;;;4934602;29;20507;-69
2021/04/12 05:41:50;;;;;;;19.00;9.00;;;11.80;61.70;;;;;;4933543;29;20150;-69
2021/04/12 05:44:38;;;;;;;17.38;8.48;;;12.00;61.80;;;;;;4932158;29;20099;-68
2021/04/12 05:47:04;;;;;;;14.80;8.20;;;12.00;61.00;;;;;;4933274;29;20063;-72
2021/04/12 05:49:55;;;;;;;16.60;8.43;;;12.10;60.80;;;;;;4932333;29;20531;-69
2021/04/12 05:52:30;;;;;;;20.95;9.35;;;12.00;61.40;;;;;;4932053;29;20198;-72
2021/04/12 05:55:19;;;;;;;14.40;9.07;;;12.10;61.00;;;;;;4931896;29;20047;-70
2021/04/12 05:58:13;;;;;;;25.42;9.70;;;12.20;60.80;;;;;;4932375;29;20630;-69
2021/04/12 06:01:19;;;;;;;16.08;8.15;;;12.30;60.30;;;;;;4947561;29;20131;-69
2021/04/12 06:04:12;;;;;;;18.08;9.75;;;12.30;60.10;;;;;;4931945;29;20154;-66
2021/04/12 06:06:50;;;;;;;16.10;9.07;;;12.30;60.20;;;;;;4919925;29;20056;-70
2021/04/12 06:09:40;;;;;;;16.20;8.43;;;12.30;60.30;;;;;;4933171;29;20131;-68
2021/04/12 06:12:25;;;;;;;22.90;8.98;;;12.30;60.90;;;;;;4948024;29;20051;-69
2021/04/12 06:15:41;;;;;;;18.02;9.00;;;12.30;60.10;;;;;;4931274;29;20140;-74
2021/04/12 06:18:24;;;;;;;13.93;8.82;;;12.40;59.90;;;;;;4883480;29;20059;-73
2021/04/12 06:21:04;;;;;;;18.23;8.93;;;12.40;60.00;;;;;;4940947;29;20098;-74
2021/04/12 06:23:36;;;;;;;18.17;8.57;;;12.50;59.50;;;;;;4934719;29;20047;-77
2021/04/12 06:26:21;;;;;;;22.10;8.63;;;12.50;60.20;;;;;;4935183;29;20129;-74
2021/04/12 06:29:18;;;;;;;16.48;8.25;;;12.50;59.40;;;;;;4950919;28;20138;-82
2021/04/12 06:32:16;;;;;;;13.77;7.80;;;12.60;59.20;;;;;;4939484;28;20170;-71
2021/04/12 06:35:00;;;;;;;17.38;8.80;;;12.80;58.60;;;;;;4927819;29;20063;-70
2021/04/12 06:37:51;;;;;;;15.93;7.85;;;13.00;58.00;;;;;;4935174;29;20545;-70
2021/04/12 06:41:05;;;;;;;14.32;7.85;;;13.20;58.00;;;;;;4931322;29;20055;-70
2021/04/12 06:44:07;;;;;;;20.23;7.78;;;13.40;57.20;;;;;;4932484;29;20047;-72
2021/04/12 06:47:05;;;;;;;17.80;8.88;;;13.30;57.00;;;;;;4950736;29;20051;-71
2021/04/12 06:49:56;;;;;;;10.25;6.85;;;13.40;56.80;;;;;;4944704;29;20122;-72
2021/04/12 06:52:49;;;;;;;14.80;8.23;;;13.50;57.00;;;;;;4951994;29;20047;-72
2021/04/12 06:55:24;;;;;;;16.05;7.60;;;13.70;56.50;;;;;;4945734;28;20055;-74
2021/04/12 06:58:38;;;;;;;14.57;7.50;;;13.90;55.70;;;;;;4932619;29;20131;-73
2021/04/12 07:01:25;;;;;;;14.00;7.80;;;13.90;55.80;;;;;;4932608;29;20143;-71
2021/04/12 07:04:22;;;;;;;10.15;7.60;;;14.00;55.20;;;;;;4946723;29;20142;-70
2021/04/12 07:07:19;;;;;;;18.05;8.25;;;14.20;54.60;;;;;;4920407;29;20473;-68
2021/04/12 07:10:09;;;;;;;17.90;7.78;;;14.40;54.00;;;;;;4933565;29;20194;-75
2021/04/12 07:12:58;;;;;;;15.55;8.65;;;14.40;54.50;;;;;;4946917;29;20103;-69
2021/04/12 07:15:33;;;;;;;18.25;7.57;;;14.70;54.30;;;;;;4930691;29;20055;-69
2021/04/12 07:18:36;;;;;;;13.05;7.18;;;15.20;53.70;;;;;;4946805;29;20087;-69
2021/04/12 07:21:20;;;;;;;14.90;8.23;;;15.90;52.30;;;;;;4951954;28;20143;-71
2021/04/12 07:24:05;;;;;;;14.23;7.55;;;16.40;50.20;;;;;;4933876;29;20138;-71
2021/04/12 07:26:50;;;;;;;12.77;7.78;;;16.70;49.80;;;;;;4949457;29;20047;-72
2021/04/12 07:29:22;;;;;;;26.85;7.22;;;17.20;49.20;;;;;;4948884;28;20133;-72
2021/04/12 07:32:19;;;;;;;10.77;6.72;;;17.60;48.40;;;;;;4933552;29;20043;-78
2021/04/12 07:35:14;;;;;;;14.93;6.68;;;18.10;47.20;;;;;;4949608;28;20101;-75
2021/04/12 07:38:17;;;;;;;10.35;6.40;;;18.60;46.70;;;;;;4950863;28;20507;-75
2021/04/12 07:41:01;;;;;;;9.27;6.03;;;19.30;45.50;;;;;;4950057;29;20133;-80
2021/04/12 07:44:05;;;;;;;7.53;4.60;;;19.60;44.10;;;;;;4933670;29;20102;-74
2021/04/12 07:47:09;;;;;;;7.82;5.40;;;19.50;43.70;;;;;;4949477;28;20106;-79
2021/04/12 07:49:50;;;;;;;11.25;5.57;;;19.50;43.90;;;;;;4933906;29;20047;-75
2021/04/12 07:52:38;;;;;;;10.63;5.18;;;19.40;44.10;;;;;;4950850;28;20106;-74
2021/04/12 07:55:43;;;;;;;10.02;5.65;;;19.40;44.60;;;;;;4951990;29;20075;-79
2021/04/12 07:58:44;;;;;;;11.45;6.35;;;19.60;44.20;;;;;;4937359;28;20464;-77
2021/04/12 08:01:45;;;;;;;21.27;6.68;;;19.80;44.40;;;;;;4933704;29;20047;-77
2021/04/12 08:04:36;;;;;;;7.95;4.85;;;20.50;42.90;;;;;;4949691;29;20187;-77
2021/04/12 08:07:40;;;;;;;6.15;4.45;;;20.80;42.10;;;;;;4941934;29;20070;-74
2021/04/12 08:10:47;;;;;;;8.55;5.40;;;20.50;42.10;;;;;;4936637;28;20047;-73
2021/04/12 08:13:50;;;;;;;11.40;5.80;;;20.30;43.30;;;;;;4920246;29;20187;-73
2021/04/12 08:16:19;;;;;;;18.48;5.43;;;20.10;44.00;;;;;;4945797;29;20151;-74
2021/04/12 08:19:01;;;;;;;8.27;4.22;;;20.00;43.70;;;;;;4930085;29;20062;-74
2021/04/12 08:22:01;;;;;;;9.63;3.00;;;19.90;43.60;;;;;;4930911;29;20521;-74
2021/04/12 08:24:39;;;;;;;10.27;2.42;;;19.90;42.90;;;;;;4945655;29;20055;-70
2021/04/12 08:27:25;;;;;;;10.93;3.80;;;19.80;42.60;;;;;;4913978;29;20044;-76
2021/04/12 08:30:29;;;;;;;4.55;2.05;;;19.70;43.50;;;;;;4945158;29;20131;-66
2021/04/12 08:33:22;;;;;;;9.07;2.42;;;19.60;42.90;;;;;;4931118;29;20494;-71
2021/04/12 08:36:06;;;;;;;7.45;2.50;;;19.50;43.40;;;;;;4931050;29;20135;-70
2021/04/12 08:39:13;;;;;;;6.45;3.50;;;19.50;43.30;;;;;;4933298;29;20091;-68
2021/04/12 08:41:48;;;;;;;11.50;3.40;;;19.50;44.40;;;;;;4897063;29;20150;-69
2021/04/12 08:44:47;;;;;;;7.78;4.10;;;19.50;43.40;;;;;;4946746;29;20492;-73
2021/04/12 08:47:34;;;;;;;10.77;3.53;;;19.60;44.10;;;;;;4942405;29;20058;-71
2021/04/12 08:50:28;;;;;;;9.48;3.97;;;19.50;43.20;;;;;;4936217;28;20071;-69
2021/04/12 08:53:31;;;;;;;5.07;4.03;;;19.70;43.60;;;;;;4947516;29;20074;-69
2021/04/12 08:56:25;;;;;;;10.43;4.53;;;19.50;44.80;;;;;;4932888;29;20095;-68
2021/04/12 08:59:14;;;;;;;4.35;2.97;;;19.50;44.50;;;;;;4932096;29;20147;-68
2021/04/12 09:01:59;;;;;;;6.35;3.00;;;19.80;43.10;;;;;;4924107;29;20138;-69
2021/04/12 09:04:53;;;;;;;5.68;2.60;;;20.10;42.20;;;;;;4928448;29;20072;-68
2021/04/12 09:07:40;;;;;;;8.00;2.67;;;20.30;42.00;;;;;;4927529;29;20146;-68
2021/04/12 09:10:29;;;;;;;10.57;3.40;;;21.00;41.20;;;;;;4934026;29;20048;-64
2021/04/12 09:13:16;;;;;;;9.05;3.50;;;21.60;40.00;;;;;;4932952;29;20107;-70
2021/04/12 09:16:11;;;;;;;8.27;3.33;;;22.20;39.10;;;;;;4932421;29;20047;-65
2021/04/12 09:18:49;;;;;;;21.67;3.13;;;22.60;38.00;;;;;;4915378;29;20130;-66
2021/04/12 09:21:38;;;;;;;6.10;2.70;;;22.80;37.40;;;;;;4932414;29;20062;-66
2021/04/12 09:24:35;;;;;;;7.93;2.70;;;23.30;37.50;;;;;;4940504;29;20106;-65
2021/04/12 09:27:32;;;;;;;2.75;2.25;;;23.90;36.90;;;;;;4937465;28;20048;-68
2021/04/12 09:30:06;;;;;;;10.75;2.72;;;24.60;36.10;;;;;;4933931;29;20126;-66
2021/04/12 09:33:09;;;;;;;5.32;3.05;;;25.20;35.50;;;;;;4931026;29;20130;-70
2021/04/12 09:35:56;;;;;;;2.60;2.38;;;25.80;34.90;;;;;;4948041;29;20524;-69
2021/04/12 09:38:47;;;;;;;6.93;2.85;;;26.40;34.20;;;;;;4933783;29;20049;-69
2021/04/12 09:41:24;;;;;;;5.35;2.67;;;27.00;33.70;;;;;;4932223;29;20187;-69
2021/04/12 09:44:08;;;;;;;3.78;2.30;;;27.50;33.50;;;;;;4948196;29;20071;-73
2021/04/12 09:46:37;;;;;;;17.90;3.00;;;28.10;33.10;;;;;;4933768;29;20143;-64
2021/04/12 09:49:36;;;;;;;4.60;2.45;;;28.70;32.20;;;;;;4932367;29;20134;-65
2021/04/12 09:52:11;;;;;;;6.55;2.10;;;29.20;31.70;;;;;;4929715;29;20537;-66
2021/04/12 09:54:49;;;;;;;2.35;1.85;;;29.30;31.80;;;;;;4933578;29;20079;-70
2021/04/12 09:57:24;;;;;;;6.07;2.35;;;30.00;31.20;;;;;;4916379;29;20440;-66
2021/04/12 10:00:08;;;;;;;12.10;2.47;;;30.30;30.80;;;;;;4932138;29;20047;-69
2021/04/12 10:02:54;;;;;;;10.68;1.85;;;30.50;30.80;;;;;;4933020;29;20138;-65
2021/04/12 10:05:29;;;;;;;3.53;1.75;;;30.80;30.50;;;;;;4928997;29;20051;-70
2021/04/12 10:08:05;;;;;;;5.93;1.58;;;31.10;31.10;;;;;;4948494;29;20087;-67
2021/04/12 10:11:05;;;;;;;4.50;1.92;;;31.30;30.40;;;;;;4946225;29;20051;-67
2021/04/12 10:14:02;;;;;;;6.43;2.08;;;31.50;30.00;;;;;;4924295;29;20134;-68
2021/04/12 10:16:34;;;;;;;9.30;2.97;;;30.90;30.10;;;;;;4933080;29;20538;-69
2021/04/12 10:19:21;;;;;;;3.53;1.90;;;30.20;31.00;;;;;;4933109;29;20480;-70
2021/04/12 10:21:55;;;;;;;8.43;2.30;;;30.20;31.00;;;;;;4947819;29;20051;-68
2021/04/12 10:24:43;;;;;;;5.43;2.40;;;30.40;31.20;;;;;;4931725;29;20099;-71
2021/04/12 10:27:35;;;;;;;6.93;1.83;;;30.40;31.30;;;;;;4933440;29;20094;-69
2021/04/12 10:30:32;;;;;;;9.85;2.50;;;30.50;31.00;;;;;;4950111;29;20047;-69
2021/04/12 10:33:01;;;;;;;11.82;2.47;;;30.50;31.10;;;;;;4940648;29;20051;-68
2021/04/12 10:35:39;;;;;;;5.85;2.40;;;30.60;31.30;;;;;;4962445;29;20051;-70
2021/04/12 10:38:31;;;;;;;2.90;2.10;;;30.60;30.80;;;;;;4945816;29;20138;-68
2021/04/12 10:41:09;;;;;;;7.97;2.45;;;30.50;30.80;;;;;;4945471;29;20143;-69
2021/04/12 10:44:06;;;;;;;3.08;1.50;;;30.60;31.20;;;;;;4947318;29;20158;-69
2021/04/12 10:46:56;;;;;;;4.13;2.00;;;30.40;30.90;;;;;;4930922;29;20587;-65
2021/04/12 10:49:44;;;;;;;2.42;2.20;;;29.80;30.90;;;;;;4931557;29;20071;-68
2021/04/12 10:52:29;;;;;;;3.65;1.92;;;28.00;32.40;;;;;;4932507;29;20098;-72
2021/04/12 10:55:19;;;;;;;9.55;2.55;;;26.30;33.90;;;;;;4932271;29;20056;-67
2021/04/12 10:58:09;;;;;;;4.15;1.83;;;25.80;34.60;;;;;;4932272;29;20126;-65
2021/04/12 11:00:44;;;;;;;4.78;1.90;;;25.70;34.60;;;;;;4946737;29;20066;-66
2021/04/12 11:03:37;;;;;;;12.75;2.50;;;25.50;35.10;;;;;;4930956;29;20135;-70
2021/04/12 11:06:04;;;;;;;4.38;2.03;;;25.30;35.50;;;;;;4949710;29;20423;-68
2021/04/12 11:08:46;;;;;;;2.80;2.38;;;24.80;36.00;;;;;;4949800;29;20538;-66
2021/04/12 11:11:47;;;;;;;8.27;3.15;;;24.60;36.50;;;;;;4939447;29;20052;-66
2021/04/12 11:14:26;;;;;;;4.10;1.92;;;24.30;37.20;;;;;;4910830;29;20071;-66
2021/04/12 11:17:03;;;;;;;4.63;2.10;;;24.10;37.20;;;;;;4930842;29;20098;-70
2021/04/12 11:20:11;;;;;;;4.15;1.85;;;23.90;38.00;;;;;;4932150;29;20150;-68
2021/04/12 11:22:58;;;;;;;5.40;1.75;;;23.80;38.50;;;;;;4926897;29;20067;-70
2021/04/12 11:25:47;;;;;;;5.22;2.03;;;23.80;38.20;;;;;;4950794;28;20143;-69
2021/04/12 11:28:35;;;;;;;3.45;2.38;;;23.70;38.40;;;;;;4933169;29;20083;-79
2021/04/12 11:31:23;;;;;;;3.97;1.80;;;23.50;38.90;;;;;;4938531;29;20685;-71
2021/04/12 11:34:14;;;;;;;7.03;2.13;;;23.20;39.60;;;;;;4950801;29;20051;-71
2021/04/12 11:36:43;;;;;;;6.70;2.45;;;23.00;39.50;;;;;;4949471;29;20550;-72
2021/04/12 11:39:20;;;;;;;10.68;2.28;;;22.50;40.10;;;;;;4950964;29;20503;-68
2021/04/12 11:42:02;;;;;;;6.93;1.77;;;22.30;40.30;;;;;;4965572;28;20460;-73
2021/04/12 11:44:44;;;;;;;5.72;2.13;;;22.10;40.90;;;;;;4933632;29;20055;-69
2021/04/12 11:47:13;;;;;;;;;;;21.90;41.20;;;;;;4946364;29;20091;-69
2021/04/12 11:50:10;;;;;;;7.55;1.77;;;21.90;41.20;;;;;;4931410;29;19926;-68
2021/04/12 11:52:56;;;;;;;26.98;3.03;;;21.90;41.40;;;;;;4931086;29;20618;-69
2021/04/12 11:55:48;;;;;;;14.70;1.92;;;21.80;41.50;;;;;;4919182;29;20134;-67
2021/04/12 11:58:20;;;;;;;9.00;2.07;;;21.70;41.60;;;;;;4929911;29;20102;-68
2021/04/12 12:01:07;;;;;;;5.18;2.35;;;21.60;41.60;;;;;;4925161;29;20078;-76
2021/04/12 12:03:41;;;;;;;7.70;1.85;;;21.60;41.50;;;;;;4948682;29;20146;-75
2021/04/12 12:06:35;;;;;;;10.45;2.40;;;21.50;41.60;;;;;;4935717;29;20126;-73
2021/04/12 12:09:19;;;;;;;5.93;2.20;;;21.50;41.50;;;;;;4950151;28;20130;-68
2021/04/12 12:11:51;;;;;;;6.18;2.17;;;21.50;41.60;;;;;;4934221;29;20515;-67
2021/04/12 12:14:46;;;;;;;;;;;21.30;42.10;;;;;;4930979;29;20131;-68
2021/04/12 12:17:22;;;;;;;2.58;1.80;;;21.20;42.30;;;;;;4895271;29;20325;-71
2021/04/12 12:19:53;;;;;;;4.15;2.10;;;21.20;42.50;;;;;;4930871;29;20183;-70
2021/04/12 12:22:53;;;;;;;6.68;2.63;;;21.20;42.90;;;;;;4952408;29;20035;-71
2021/04/12 12:25:44;;;;;;;9.07;2.60;;;21.20;43.10;;;;;;4928952;29;20080;-72
2021/04/12 12:28:38;;;;;;;4.78;2.55;;;21.20;42.60;;;;;;4941190;29;20074;-75
2021/04/12 12:31:35;;;;;;;3.08;2.17;;;20.90;43.20;;;;;;4920895;29;20062;-71
2021/04/12 12:34:10;;;;;;;10.88;3.50;;;20.90;42.90;;;;;;4938174;29;20051;-71
2021/04/12 12:36:48;;;;;;;9.35;2.97;;;21.00;43.10;;;;;;4949091;28;20130;-70
2021/04/12 12:39:26;;;;;;;4.22;2.10;;;21.00;42.80;;;;;;4948683;29;20102;-71
2021/04/12 12:41:54;;;;;;;2.85;1.98;;;21.00;42.80;;;;;;4948580;29;20139;-70
2021/04/12 12:44:25;;;;;;;3.63;2.30;;;21.00;42.70;;;;;;4948691;29;20146;-72
2021/04/12 12:46:53;;;;;;;1.80;1.70;;;21.00;43.00;;;;;;4948296;29;20146;-72
2021/04/12 12:49:25;;;;;;;5.70;1.52;;;21.00;42.80;;;;;;4964497;28;20058;-74
2021/04/12 12:51:56;;;;;;;;;;;21.00;42.80;;;;;;4948791;29;20163;-71
2021/04/12 12:54:25;;;;;;;8.38;2.20;;;21.10;42.90;;;;;;4949894;29;20314;-71
2021/04/12 12:57:00;;;;;;;6.88;2.25;;;21.10;43.10;;;;;;4948186;28;20587;-70
2021/04/12 12:59:32;;;;;;;7.30;2.40;;;21.30;42.80;;;;;;4949748;29;20039;-71
2021/04/12 13:02:26;;;;;;;5.10;1.63;;;21.30;42.70;;;;;;4948322;28;20436;-70
2021/04/12 13:05:22;;;;;;;2.90;1.90;;;21.40;42.50;;;;;;4936388;28;20100;-70
2021/04/12 13:07:50;;;;;;;5.93;2.40;;;21.40;42.60;;;;;;4925138;29;20175;-72
2021/04/12 13:10:42;;;;;;;8.55;2.25;;;21.40;42.20;;;;;;4929232;29;20106;-70
2021/04/12 13:13:27;;;;;;;5.47;1.90;;;21.40;42.10;;;;;;4933108;29;20142;-69
2021/04/12 13:15:55;;;;;;;3.08;1.83;;;21.40;42.10;;;;;;4930434;29;20786;-71
2021/04/12 13:18:21;;;;;;;36.00;4.13;;;21.50;42.10;;;;;;4928906;29;20130;-69
2021/04/12 13:21:19;;;;;;;9.18;2.08;;;21.40;41.90;;;;;;4930212;29;20134;-70
2021/04/12 13:23:45;;;;;;;7.07;2.55;;;21.50;41.90;;;;;;4929991;29;20074;-72
2021/04/12 13:26:23;;;;;;;2.75;1.58;;;21.40;42.00;;;;;;4945796;28;20052;-70
2021/04/12 13:28:50;;;;;;;5.35;1.95;;;21.40;42.20;;;;;;4948326;29;20497;-70
2021/04/12 13:31:43;;;;;;;12.02;2.40;;;21.50;42.40;;;;;;4933701;29;20051;-73
2021/04/12 13:34:12;;;;;;;;;;;21.60;42.00;;;;;;4915756;29;20062;-69
2021/04/12 13:36:42;;;;;;;5.13;2.08;;;21.60;42.20;;;;;;4933615;29;19923;-74
2021/04/12 13:39:30;;;;;;;5.15;2.10;;;21.60;42.10;;;;;;4921580;29;20547;-73
2021/04/12 13:41:57;;;;;;;5.57;2.50;;;21.70;41.90;;;;;;4932083;29;20063;-75
2021/04/12 13:44:25;;;;;;;8.85;2.47;;;21.70;42.10;;;;;;4916571;29;20130;-77
2021/04/12 13:47:20;;;;;;;5.20;2.28;;;21.60;42.00;;;;;;4933156;29;20047;-74
2021/04/12 13:49:56;;;;;;;5.85;2.60;;;21.50;42.20;;;;;;4931087;29;20087;-73
2021/04/12 13:52:28;;;;;;;5.57;1.70;;;21.20;42.80;;;;;;4932107;29;20056;-73
2021/04/12 13:55:12;;;;;;;5.13;1.90;;;21.00;43.00;;;;;;4931863;29;20169;-71
2021/04/12 13:57:47;;;;;;;5.63;2.45;;;20.90;43.00;;;;;;4932155;29;20075;-73
2021/04/12 14:00:27;;;;;;;5.03;2.50;;;20.80;43.40;;;;;;4926042;29;20079;-71
2021/04/12 14:03:30;;;;;;;6.03;2.38;;;20.70;43.30;;;;;;4950863;29;20063;-72
2021/04/12 14:06:10;;;;;;;3.85;1.73;;;20.60;43.70;;;;;;4938378;29;20077;-70
2021/04/12 14:08:51;;;;;;;7.40;2.03;;;20.60;43.70;;;;;;4951369;29;20099;-71
2021/04/12 14:11:25;;;;;;;2.83;1.70;;;20.50;43.80;;;;;;4945548;29;20060;-71
2021/04/12 14:14:05;;;;;;;4.40;1.92;;;20.50;43.80;;;;;;4953746;29;20063;-71
2021/04/12 14:16:37;;;;;;;5.82;1.63;;;20.50;44.10;;;;;;4946539;29;20044;-71
2021/04/12 14:19:09;;;;;;;8.23;1.45;;;20.50;43.80;;;;;;4949458;29;20512;-70
2021/04/12 14:21:43;;;;;;;6.47;2.00;;;20.50;43.90;;;;;;4934641;29;20557;-70
2021/04/12 14:24:40;;;;;;;4.80;1.83;;;20.50;43.80;;;;;;4951380;29;20476;-70